MMMD/MID METAR and TAF weather

Enter ICAO airport designator
Station Type Date Time Source
MMMD METAR 2021/05/14 21:41 UTC NOAA

MMMD 142141Z 36010KT 7SM SCT020CB BKN080 OVC300 30/21 A2996 RMK 8/367


Station Type Date Time Source
MMMD Decoded METAR 2021/05/14 21:41 UTC NOAA

Merida / lic Manuel Crecencio, Mexico (MMMD) 20-56N 089-39W 11M
May 14, 2021 - 05:41 PM EDT / 2021.05.14 2141 UTC
Wind: from the N (360 degrees) at 12 MPH (10 KT):0
Visibility: 7 mile(s):0
Sky conditions: overcast
Weather: Cumulonimbus clouds observed
Temperature: 86 F (30 C)
Dew Point: 69 F (21 C)
Relative Humidity: 58%
Pressure (altimeter): 29.96 in. Hg (1014 hPa)
ob: MMMD 142141Z 36010KT 7SM SCT020CB BKN080 OVC300 30/21 A2996 RMK 8/367
cycle: 21

Station Type Date Time Source
MMMD TAF 2021/05/14 18:40 UTC NOAA

TAF MMMD 141732Z 1418/1524 07012KT P6SM BKN020 BKN250 TX35/1420Z TN25/1512Z
FM150600 05006KT P6SM SCT020 SCT250
FM151800 08012KT P6SM BKN020 BKN250

Example: see airport list